sensor_id;sensor_type;location;lat;lon;timestamp;P1;durP1;ratioP1;P2;durP2;ratioP2
33696;SDS011;20031;43.416;23.232;2022-10-17T00:01:29;18.10;;;8.98;;
33696;SDS011;20031;43.416;23.232;2022-10-17T00:03:54;17.85;;;9.57;;
33696;SDS011;20031;43.416;23.232;2022-10-17T00:06:20;21.20;;;9.15;;
33696;SDS011;20031;43.416;23.232;2022-10-17T00:08:45;22.80;;;9.88;;
33696;SDS011;20031;43.416;23.232;2022-10-17T00:11:15;20.17;;;8.30;;
33696;SDS011;20031;43.416;23.232;2022-10-17T00:13:43;19.98;;;8.27;;
33696;SDS011;20031;43.416;23.232;2022-10-17T00:16:09;16.45;;;8.57;;
33696;SDS011;20031;43.416;23.232;2022-10-17T00:18:35;17.05;;;8.40;;
33696;SDS011;20031;43.416;23.232;2022-10-17T00:21:00;12.18;;;6.57;;
33696;SDS011;20031;43.416;23.232;2022-10-17T00:23:26;11.60;;;5.60;;
33696;SDS011;20031;43.416;23.232;2022-10-17T00:25:59;11.00;;;5.50;;
33696;SDS011;20031;43.416;23.232;2022-10-17T00:28:26;9.48;;;4.75;;
33696;SDS011;20031;43.416;23.232;2022-10-17T00:30:59;13.55;;;6.68;;
33696;SDS011;20031;43.416;23.232;2022-10-17T00:33:26;11.77;;;6.30;;
33696;SDS011;20031;43.416;23.232;2022-10-17T00:36:02;11.65;;;6.63;;
33696;SDS011;20031;43.416;23.232;2022-10-17T00:38:28;12.20;;;6.90;;
33696;SDS011;20031;43.416;23.232;2022-10-17T00:40:53;11.35;;;7.00;;
33696;SDS011;20031;43.416;23.232;2022-10-17T00:43:18;16.45;;;7.05;;
33696;SDS011;20031;43.416;23.232;2022-10-17T00:45:44;12.18;;;7.22;;
33696;SDS011;20031;43.416;23.232;2022-10-17T00:48:09;11.85;;;6.78;;
33696;SDS011;20031;43.416;23.232;2022-10-17T00:50:37;14.57;;;6.70;;
33696;SDS011;20031;43.416;23.232;2022-10-17T00:53:03;13.48;;;6.75;;
33696;SDS011;20031;43.416;23.232;2022-10-17T00:55:33;14.80;;;6.85;;
33696;SDS011;20031;43.416;23.232;2022-10-17T00:58:02;17.00;;;7.15;;
33696;SDS011;20031;43.416;23.232;2022-10-17T01:00:29;12.40;;;6.65;;
33696;SDS011;20031;43.416;23.232;2022-10-17T01:02:55;12.50;;;6.53;;
33696;SDS011;20031;43.416;23.232;2022-10-17T01:05:20;12.55;;;6.95;;
33696;SDS011;20031;43.416;23.232;2022-10-17T01:07:46;12.77;;;7.35;;
33696;SDS011;20031;43.416;23.232;2022-10-17T01:10:14;10.90;;;6.82;;
33696;SDS011;20031;43.416;23.232;2022-10-17T01:27:05;14.52;;;6.20;;
33696;SDS011;20031;43.416;23.232;2022-10-17T01:35:41;13.85;;;6.45;;
33696;SDS011;20031;43.416;23.232;2022-10-17T01:38:19;12.18;;;6.10;;
33696;SDS011;20031;43.416;23.232;2022-10-17T01:40:50;14.15;;;6.43;;
33696;SDS011;20031;43.416;23.232;2022-10-17T01:43:25;18.23;;;6.50;;
33696;SDS011;20031;43.416;23.232;2022-10-17T01:46:02;13.63;;;6.45;;
33696;SDS011;20031;43.416;23.232;2022-10-17T01:48:35;15.05;;;6.57;;
33696;SDS011;20031;43.416;23.232;2022-10-17T01:51:08;16.30;;;6.13;;
33696;SDS011;20031;43.416;23.232;2022-10-17T01:53:51;11.25;;;5.97;;
33696;SDS011;20031;43.416;23.232;2022-10-17T01:56:21;14.98;;;5.70;;
33696;SDS011;20031;43.416;23.232;2022-10-17T01:58:55;20.80;;;6.32;;
33696;SDS011;20031;43.416;23.232;2022-10-17T02:01:24;16.95;;;6.25;;
33696;SDS011;20031;43.416;23.232;2022-10-17T02:03:52;15.13;;;6.55;;
33696;SDS011;20031;43.416;23.232;2022-10-17T02:06:20;16.48;;;6.10;;
33696;SDS011;20031;43.416;23.232;2022-10-17T02:08:46;15.68;;;6.50;;
33696;SDS011;20031;43.416;23.232;2022-10-17T02:11:14;14.05;;;6.30;;
33696;SDS011;20031;43.416;23.232;2022-10-17T02:19:27;16.08;;;5.85;;
33696;SDS011;20031;43.416;23.232;2022-10-17T02:22:03;12.18;;;6.15;;
33696;SDS011;20031;43.416;23.232;2022-10-17T02:24:49;11.68;;;6.03;;
33696;SDS011;20031;43.416;23.232;2022-10-17T02:29:54;10.68;;;5.57;;
33696;SDS011;20031;43.416;23.232;2022-10-17T02:32:28;15.50;;;6.00;;
33696;SDS011;20031;43.416;23.232;2022-10-17T02:35:01;17.05;;;6.20;;
33696;SDS011;20031;43.416;23.232;2022-10-17T02:37:29;11.85;;;5.70;;
33696;SDS011;20031;43.416;23.232;2022-10-17T02:39:57;13.65;;;6.25;;
33696;SDS011;20031;43.416;23.232;2022-10-17T02:42:24;19.40;;;6.15;;
33696;SDS011;20031;43.416;23.232;2022-10-17T02:44:52;27.08;;;6.85;;
33696;SDS011;20031;43.416;23.232;2022-10-17T02:47:34;17.08;;;6.90;;
33696;SDS011;20031;43.416;23.232;2022-10-17T02:50:05;25.80;;;6.35;;
33696;SDS011;20031;43.416;23.232;2022-10-17T02:55:23;19.65;;;6.97;;
33696;SDS011;20031;43.416;23.232;2022-10-17T02:58:05;19.42;;;6.88;;
33696;SDS011;20031;43.416;23.232;2022-10-17T03:00:36;17.25;;;6.60;;
33696;SDS011;20031;43.416;23.232;2022-10-17T03:03:16;17.05;;;6.70;;
33696;SDS011;20031;43.416;23.232;2022-10-17T03:08:16;17.17;;;6.43;;
33696;SDS011;20031;43.416;23.232;2022-10-17T03:10:41;13.15;;;6.15;;
33696;SDS011;20031;43.416;23.232;2022-10-17T03:13:07;27.75;;;6.70;;
33696;SDS011;20031;43.416;23.232;2022-10-17T03:15:32;20.52;;;6.10;;
33696;SDS011;20031;43.416;23.232;2022-10-17T03:17:58;27.75;;;7.20;;
33696;SDS011;20031;43.416;23.232;2022-10-17T03:20:23;24.08;;;8.80;;
33696;SDS011;20031;43.416;23.232;2022-10-17T03:22:48;27.25;;;8.60;;
33696;SDS011;20031;43.416;23.232;2022-10-17T03:25:14;22.67;;;7.25;;
33696;SDS011;20031;43.416;23.232;2022-10-17T03:27:39;21.25;;;7.30;;
33696;SDS011;20031;43.416;23.232;2022-10-17T03:30:05;16.23;;;7.65;;
33696;SDS011;20031;43.416;23.232;2022-10-17T03:32:34;15.32;;;7.25;;
33696;SDS011;20031;43.416;23.232;2022-10-17T03:34:59;17.33;;;7.82;;
33696;SDS011;20031;43.416;23.232;2022-10-17T03:37:25;15.02;;;6.65;;
33696;SDS011;20031;43.416;23.232;2022-10-17T03:39:51;18.38;;;6.85;;
33696;SDS011;20031;43.416;23.232;2022-10-17T03:42:16;12.45;;;6.80;;
33696;SDS011;20031;43.416;23.232;2022-10-17T03:44:41;12.65;;;6.18;;
33696;SDS011;20031;43.416;23.232;2022-10-17T03:47:07;17.50;;;6.75;;
33696;SDS011;20031;43.416;23.232;2022-10-17T03:49:32;11.48;;;5.80;;
33696;SDS011;20031;43.416;23.232;2022-10-17T03:51:58;11.23;;;6.28;;
33696;SDS011;20031;43.416;23.232;2022-10-17T03:54:23;18.30;;;5.82;;
33696;SDS011;20031;43.416;23.232;2022-10-17T03:56:49;19.10;;;6.47;;
33696;SDS011;20031;43.416;23.232;2022-10-17T03:59:14;13.18;;;5.50;;
33696;SDS011;20031;43.416;23.232;2022-10-17T04:01:40;16.23;;;5.75;;
33696;SDS011;20031;43.416;23.232;2022-10-17T04:04:06;15.63;;;6.18;;
33696;SDS011;20031;43.416;23.232;2022-10-17T04:06:32;12.55;;;6.15;;
33696;SDS011;20031;43.416;23.232;2022-10-17T04:08:58;12.50;;;5.55;;
33696;SDS011;20031;43.416;23.232;2022-10-17T04:11:23;10.50;;;5.70;;
33696;SDS011;20031;43.416;23.232;2022-10-17T04:13:53;19.98;;;7.68;;
33696;SDS011;20031;43.416;23.232;2022-10-17T04:16:20;35.78;;;11.98;;
33696;SDS011;20031;43.416;23.232;2022-10-17T04:18:45;30.30;;;11.18;;
33696;SDS011;20031;43.416;23.232;2022-10-17T04:21:11;42.47;;;13.35;;
33696;SDS011;20031;43.416;23.232;2022-10-17T04:23:37;20.67;;;8.68;;
33696;SDS011;20031;43.416;23.232;2022-10-17T04:26:03;16.58;;;6.85;;
33696;SDS011;20031;43.416;23.232;2022-10-17T04:28:30;14.95;;;5.85;;
33696;SDS011;20031;43.416;23.232;2022-10-17T04:30:57;10.63;;;5.63;;
33696;SDS011;20031;43.416;23.232;2022-10-17T04:33:24;15.40;;;6.05;;
33696;SDS011;20031;43.416;23.232;2022-10-17T04:36:06;15.20;;;6.47;;
33696;SDS011;20031;43.416;23.232;2022-10-17T04:38:35;14.05;;;5.88;;
33696;SDS011;20031;43.416;23.232;2022-10-17T04:41:01;16.55;;;6.38;;
33696;SDS011;20031;43.416;23.232;2022-10-17T04:43:29;20.20;;;5.63;;
33696;SDS011;20031;43.416;23.232;2022-10-17T04:45:58;17.60;;;6.10;;
33696;SDS011;20031;43.416;23.232;2022-10-17T04:48:25;12.75;;;5.68;;
33696;SDS011;20031;43.416;23.232;2022-10-17T04:50:55;14.48;;;6.00;;
33696;SDS011;20031;43.416;23.232;2022-10-17T04:53:23;18.20;;;5.97;;
33696;SDS011;20031;43.416;23.232;2022-10-17T04:55:49;19.10;;;5.88;;
33696;SDS011;20031;43.416;23.232;2022-10-17T04:58:15;12.70;;;5.60;;
33696;SDS011;20031;43.416;23.232;2022-10-17T05:00:41;13.10;;;6.32;;
33696;SDS011;20031;43.416;23.232;2022-10-17T05:03:07;13.70;;;5.50;;
33696;SDS011;20031;43.416;23.232;2022-10-17T05:05:35;16.90;;;6.15;;
33696;SDS011;20031;43.416;23.232;2022-10-17T05:08:02;19.23;;;6.03;;
33696;SDS011;20031;43.416;23.232;2022-10-17T05:10:28;19.67;;;7.40;;
33696;SDS011;20031;43.416;23.232;2022-10-17T05:12:53;20.67;;;6.80;;
33696;SDS011;20031;43.416;23.232;2022-10-17T05:15:19;20.17;;;7.85;;
33696;SDS011;20031;43.416;23.232;2022-10-17T05:17:44;16.67;;;8.25;;
33696;SDS011;20031;43.416;23.232;2022-10-17T05:20:10;14.88;;;8.20;;
33696;SDS011;20031;43.416;23.232;2022-10-17T05:22:35;29.15;;;12.27;;
33696;SDS011;20031;43.416;23.232;2022-10-17T05:25:01;26.23;;;9.40;;
33696;SDS011;20031;43.416;23.232;2022-10-17T05:27:26;31.35;;;10.20;;
33696;SDS011;20031;43.416;23.232;2022-10-17T05:29:52;26.90;;;10.13;;
33696;SDS011;20031;43.416;23.232;2022-10-17T05:32:17;38.15;;;8.93;;
33696;SDS011;20031;43.416;23.232;2022-10-17T05:34:43;34.40;;;6.85;;
33696;SDS011;20031;43.416;23.232;2022-10-17T05:37:08;31.83;;;7.30;;
33696;SDS011;20031;43.416;23.232;2022-10-17T05:39:34;25.88;;;7.75;;
33696;SDS011;20031;43.416;23.232;2022-10-17T05:41:59;34.35;;;8.75;;
33696;SDS011;20031;43.416;23.232;2022-10-17T05:44:25;25.67;;;8.93;;
33696;SDS011;20031;43.416;23.232;2022-10-17T05:46:50;28.95;;;9.65;;
33696;SDS011;20031;43.416;23.232;2022-10-17T05:49:16;30.52;;;9.60;;
33696;SDS011;20031;43.416;23.232;2022-10-17T05:51:42;38.22;;;9.80;;
33696;SDS011;20031;43.416;23.232;2022-10-17T05:54:08;34.28;;;9.82;;
33696;SDS011;20031;43.416;23.232;2022-10-17T05:56:33;30.75;;;9.60;;
33696;SDS011;20031;43.416;23.232;2022-10-17T05:58:59;42.15;;;10.80;;
33696;SDS011;20031;43.416;23.232;2022-10-17T06:01:25;51.97;;;11.20;;
33696;SDS011;20031;43.416;23.232;2022-10-17T06:03:50;39.72;;;11.32;;
33696;SDS011;20031;43.416;23.232;2022-10-17T06:06:16;38.53;;;12.35;;
33696;SDS011;20031;43.416;23.232;2022-10-17T06:08:42;50.13;;;12.15;;
33696;SDS011;20031;43.416;23.232;2022-10-17T06:11:09;39.55;;;11.63;;
33696;SDS011;20031;43.416;23.232;2022-10-17T06:13:35;41.55;;;10.48;;
33696;SDS011;20031;43.416;23.232;2022-10-17T06:16:00;27.02;;;10.00;;
33696;SDS011;20031;43.416;23.232;2022-10-17T06:18:26;31.20;;;10.50;;
33696;SDS011;20031;43.416;23.232;2022-10-17T06:20:51;27.25;;;10.32;;
33696;SDS011;20031;43.416;23.232;2022-10-17T06:23:17;33.90;;;11.55;;
33696;SDS011;20031;43.416;23.232;2022-10-17T06:25:42;27.27;;;11.75;;
33696;SDS011;20031;43.416;23.232;2022-10-17T06:28:08;38.08;;;12.50;;
33696;SDS011;20031;43.416;23.232;2022-10-17T06:30:36;38.35;;;12.05;;
33696;SDS011;20031;43.416;23.232;2022-10-17T06:33:03;39.35;;;12.70;;
33696;SDS011;20031;43.416;23.232;2022-10-17T06:35:29;39.90;;;13.15;;
33696;SDS011;20031;43.416;23.232;2022-10-17T06:37:55;37.58;;;13.75;;
33696;SDS011;20031;43.416;23.232;2022-10-17T06:40:20;47.53;;;15.93;;
33696;SDS011;20031;43.416;23.232;2022-10-17T06:42:46;51.85;;;18.05;;
33696;SDS011;20031;43.416;23.232;2022-10-17T06:45:12;40.13;;;16.17;;
33696;SDS011;20031;43.416;23.232;2022-10-17T06:47:37;41.03;;;14.70;;
33696;SDS011;20031;43.416;23.232;2022-10-17T06:50:03;40.92;;;15.27;;
33696;SDS011;20031;43.416;23.232;2022-10-17T06:52:29;37.45;;;13.57;;
33696;SDS011;20031;43.416;23.232;2022-10-17T06:54:54;41.17;;;12.90;;
33696;SDS011;20031;43.416;23.232;2022-10-17T06:57:19;29.15;;;11.93;;
33696;SDS011;20031;43.416;23.232;2022-10-17T06:59:45;26.63;;;11.10;;
33696;SDS011;20031;43.416;23.232;2022-10-17T07:02:10;33.50;;;11.10;;
33696;SDS011;20031;43.416;23.232;2022-10-17T07:04:36;23.90;;;8.85;;
33696;SDS011;20031;43.416;23.232;2022-10-17T07:07:02;22.20;;;8.30;;
33696;SDS011;20031;43.416;23.232;2022-10-17T07:09:28;19.55;;;8.05;;
33696;SDS011;20031;43.416;23.232;2022-10-17T07:11:54;25.08;;;8.23;;
33696;SDS011;20031;43.416;23.232;2022-10-17T07:14:20;21.02;;;8.20;;
33696;SDS011;20031;43.416;23.232;2022-10-17T07:16:45;18.42;;;8.55;;
33696;SDS011;20031;43.416;23.232;2022-10-17T07:19:11;27.23;;;8.93;;
33696;SDS011;20031;43.416;23.232;2022-10-17T07:21:36;24.10;;;8.75;;
33696;SDS011;20031;43.416;23.232;2022-10-17T07:24:01;27.30;;;10.10;;
33696;SDS011;20031;43.416;23.232;2022-10-17T07:26:27;19.83;;;8.85;;
33696;SDS011;20031;43.416;23.232;2022-10-17T07:28:53;21.10;;;8.73;;
33696;SDS011;20031;43.416;23.232;2022-10-17T07:31:20;29.67;;;11.20;;
33696;SDS011;20031;43.416;23.232;2022-10-17T07:33:46;51.00;;;15.07;;
33696;SDS011;20031;43.416;23.232;2022-10-17T07:36:13;44.42;;;17.15;;
33696;SDS011;20031;43.416;23.232;2022-10-17T07:38:39;57.05;;;18.92;;
33696;SDS011;20031;43.416;23.232;2022-10-17T07:41:05;45.20;;;16.20;;
33696;SDS011;20031;43.416;23.232;2022-10-17T07:43:32;38.20;;;14.18;;
33696;SDS011;20031;43.416;23.232;2022-10-17T07:46:00;42.47;;;14.90;;
33696;SDS011;20031;43.416;23.232;2022-10-17T07:48:26;38.05;;;13.32;;
33696;SDS011;20031;43.416;23.232;2022-10-17T07:50:52;42.92;;;15.52;;
33696;SDS011;20031;43.416;23.232;2022-10-17T07:53:18;47.30;;;16.77;;
33696;SDS011;20031;43.416;23.232;2022-10-17T07:55:44;56.78;;;19.30;;
33696;SDS011;20031;43.416;23.232;2022-10-17T07:58:10;60.05;;;20.23;;
33696;SDS011;20031;43.416;23.232;2022-10-17T08:00:37;51.28;;;16.17;;
33696;SDS011;20031;43.416;23.232;2022-10-17T08:03:03;40.28;;;15.60;;
33696;SDS011;20031;43.416;23.232;2022-10-17T08:05:29;63.88;;;16.92;;
33696;SDS011;20031;43.416;23.232;2022-10-17T08:07:55;88.88;;;24.15;;
33696;SDS011;20031;43.416;23.232;2022-10-17T08:10:20;66.10;;;20.20;;
33696;SDS011;20031;43.416;23.232;2022-10-17T08:12:51;35.30;;;10.85;;
33696;SDS011;20031;43.416;23.232;2022-10-17T08:15:17;28.33;;;10.88;;
33696;SDS011;20031;43.416;23.232;2022-10-17T08:17:43;26.92;;;9.20;;
33696;SDS011;20031;43.416;23.232;2022-10-17T08:20:08;21.17;;;7.60;;
33696;SDS011;20031;43.416;23.232;2022-10-17T08:22:34;37.38;;;9.18;;
33696;SDS011;20031;43.416;23.232;2022-10-17T08:25:00;25.98;;;8.50;;
33696;SDS011;20031;43.416;23.232;2022-10-17T08:27:25;20.63;;;7.75;;
33696;SDS011;20031;43.416;23.232;2022-10-17T08:29:53;24.52;;;8.40;;
33696;SDS011;20031;43.416;23.232;2022-10-17T08:32:22;26.30;;;7.55;;
33696;SDS011;20031;43.416;23.232;2022-10-17T08:34:54;18.25;;;5.97;;
33696;SDS011;20031;43.416;23.232;2022-10-17T08:37:20;26.00;;;7.05;;
33696;SDS011;20031;43.416;23.232;2022-10-17T08:39:47;27.27;;;7.55;;
33696;SDS011;20031;43.416;23.232;2022-10-17T08:48:00;21.77;;;6.40;;
33696;SDS011;20031;43.416;23.232;2022-10-17T08:50:40;17.00;;;5.90;;
33696;SDS011;20031;43.416;23.232;2022-10-17T08:53:24;12.73;;;5.68;;
33696;SDS011;20031;43.416;23.232;2022-10-17T08:55:55;18.30;;;5.22;;
33696;SDS011;20031;43.416;23.232;2022-10-17T08:58:31;18.35;;;7.30;;
33696;SDS011;20031;43.416;23.232;2022-10-17T09:06:58;26.85;;;6.28;;
33696;SDS011;20031;43.416;23.232;2022-10-17T09:14:52;20.02;;;6.88;;
33696;SDS011;20031;43.416;23.232;2022-10-17T09:21:16;9.35;;;4.68;;
33696;SDS011;20031;43.416;23.232;2022-10-17T09:23:20;13.40;;;5.15;;
33696;SDS011;20031;43.416;23.232;2022-10-17T09:25:49;15.55;;;5.35;;
33696;SDS011;20031;43.416;23.232;2022-10-17T09:28:24;11.45;;;5.28;;
33696;SDS011;20031;43.416;23.232;2022-10-17T09:30:59;15.98;;;4.97;;
33696;SDS011;20031;43.416;23.232;2022-10-17T09:33:28;12.73;;;4.88;;
33696;SDS011;20031;43.416;23.232;2022-10-17T09:35:58;14.07;;;5.40;;
33696;SDS011;20031;43.416;23.232;2022-10-17T09:38:25;14.65;;;5.82;;
33696;SDS011;20031;43.416;23.232;2022-10-17T09:40:59;17.27;;;6.45;;
33696;SDS011;20031;43.416;23.232;2022-10-17T09:43:26;10.63;;;5.03;;
33696;SDS011;20031;43.416;23.232;2022-10-17T09:46:06;18.20;;;5.55;;
33696;SDS011;20031;43.416;23.232;2022-10-17T09:48:44;10.15;;;5.32;;
33696;SDS011;20031;43.416;23.232;2022-10-17T09:51:13;14.27;;;5.75;;
33696;SDS011;20031;43.416;23.232;2022-10-17T09:53:40;10.57;;;4.75;;
33696;SDS011;20031;43.416;23.232;2022-10-17T09:56:11;15.60;;;5.55;;
33696;SDS011;20031;43.416;23.232;2022-10-17T09:58:40;13.10;;;5.15;;
33696;SDS011;20031;43.416;23.232;2022-10-17T10:01:25;22.13;;;6.30;;
33696;SDS011;20031;43.416;23.232;2022-10-17T10:04:14;15.80;;;5.28;;
33696;SDS011;20031;43.416;23.232;2022-10-17T10:06:41;16.80;;;5.10;;
33696;SDS011;20031;43.416;23.232;2022-10-17T10:09:27;12.82;;;4.68;;
33696;SDS011;20031;43.416;23.232;2022-10-17T10:11:55;16.83;;;5.15;;
33696;SDS011;20031;43.416;23.232;2022-10-17T10:14:29;12.77;;;4.95;;
33696;SDS011;20031;43.416;23.232;2022-10-17T10:16:57;12.13;;;4.43;;
33696;SDS011;20031;43.416;23.232;2022-10-17T10:19:29;17.08;;;5.35;;
33696;SDS011;20031;43.416;23.232;2022-10-17T10:21:59;15.35;;;5.47;;
33696;SDS011;20031;43.416;23.232;2022-10-17T10:24:26;16.92;;;5.55;;
33696;SDS011;20031;43.416;23.232;2022-10-17T10:26:52;12.27;;;4.80;;
33696;SDS011;20031;43.416;23.232;2022-10-17T10:29:28;16.23;;;5.10;;
33696;SDS011;20031;43.416;23.232;2022-10-17T10:32:09;14.85;;;5.20;;
33696;SDS011;20031;43.416;23.232;2022-10-17T10:34:35;16.60;;;5.18;;
33696;SDS011;20031;43.416;23.232;2022-10-17T10:37:15;11.40;;;5.25;;
33696;SDS011;20031;43.416;23.232;2022-10-17T10:39:45;24.42;;;6.05;;
33696;SDS011;20031;43.416;23.232;2022-10-17T10:42:17;17.63;;;7.22;;
33696;SDS011;20031;43.416;23.232;2022-10-17T10:44:49;26.08;;;8.25;;
33696;SDS011;20031;43.416;23.232;2022-10-17T10:47:18;11.57;;;5.03;;
33696;SDS011;20031;43.416;23.232;2022-10-17T10:49:44;11.30;;;5.55;;
33696;SDS011;20031;43.416;23.232;2022-10-17T10:52:31;21.67;;;6.20;;
33696;SDS011;20031;43.416;23.232;2022-10-17T10:55:02;9.95;;;5.05;;
33696;SDS011;20031;43.416;23.232;2022-10-17T10:57:49;13.65;;;5.03;;
33696;SDS011;20031;43.416;23.232;2022-10-17T11:00:21;16.02;;;5.03;;
33696;SDS011;20031;43.416;23.232;2022-10-17T11:02:56;9.57;;;5.03;;
33696;SDS011;20031;43.416;23.232;2022-10-17T11:05:35;21.52;;;4.93;;
33696;SDS011;20031;43.416;23.232;2022-10-17T11:08:48;10.23;;;4.55;;
33696;SDS011;20031;43.416;23.232;2022-10-17T11:14:12;18.52;;;5.15;;
33696;SDS011;20031;43.416;23.232;2022-10-17T11:16:48;12.02;;;4.70;;
33696;SDS011;20031;43.416;23.232;2022-10-17T11:19:48;14.98;;;5.43;;
33696;SDS011;20031;43.416;23.232;2022-10-17T11:22:27;11.18;;;4.72;;
33696;SDS011;20031;43.416;23.232;2022-10-17T11:24:59;9.68;;;4.50;;
33696;SDS011;20031;43.416;23.232;2022-10-17T11:27:29;12.88;;;4.28;;
33696;SDS011;20031;43.416;23.232;2022-10-17T11:29:56;12.52;;;4.05;;
33696;SDS011;20031;43.416;23.232;2022-10-17T11:32:27;8.05;;;3.83;;
33696;SDS011;20031;43.416;23.232;2022-10-17T11:35:06;11.23;;;4.05;;
33696;SDS011;20031;43.416;23.232;2022-10-17T11:37:42;6.53;;;3.58;;
33696;SDS011;20031;43.416;23.232;2022-10-17T11:40:19;5.88;;;3.60;;
33696;SDS011;20031;43.416;23.232;2022-10-17T11:42:52;14.15;;;5.28;;
33696;SDS011;20031;43.416;23.232;2022-10-17T11:45:24;11.77;;;4.65;;
33696;SDS011;20031;43.416;23.232;2022-10-17T11:51:07;9.63;;;4.25;;
33696;SDS011;20031;43.416;23.232;2022-10-17T11:56:25;5.22;;;3.45;;
33696;SDS011;20031;43.416;23.232;2022-10-17T12:01:56;11.85;;;3.40;;
33696;SDS011;20031;43.416;23.232;2022-10-17T12:07:21;12.70;;;4.20;;
33696;SDS011;20031;43.416;23.232;2022-10-17T12:12:36;12.27;;;4.10;;
33696;SDS011;20031;43.416;23.232;2022-10-17T12:17:36;10.13;;;5.13;;
33696;SDS011;20031;43.416;23.232;2022-10-17T12:22:52;8.82;;;4.00;;
33696;SDS011;20031;43.416;23.232;2022-10-17T12:25:25;16.65;;;5.18;;
33696;SDS011;20031;43.416;23.232;2022-10-17T12:30:51;21.05;;;5.22;;
33696;SDS011;20031;43.416;23.232;2022-10-17T12:49:47;24.55;;;6.57;;
33696;SDS011;20031;43.416;23.232;2022-10-17T12:52:14;23.65;;;6.93;;
33696;SDS011;20031;43.416;23.232;2022-10-17T12:54:41;14.95;;;4.53;;
33696;SDS011;20031;43.416;23.232;2022-10-17T12:57:14;28.05;;;5.97;;
33696;SDS011;20031;43.416;23.232;2022-10-17T12:59:45;31.65;;;7.35;;
33696;SDS011;20031;43.416;23.232;2022-10-17T13:02:17;45.40;;;10.75;;
33696;SDS011;20031;43.416;23.232;2022-10-17T13:04:46;7.82;;;3.80;;
33696;SDS011;20031;43.416;23.232;2022-10-17T13:07:18;12.00;;;3.30;;
33696;SDS011;20031;43.416;23.232;2022-10-17T13:09:46;11.82;;;4.63;;
33696;SDS011;20031;43.416;23.232;2022-10-17T13:12:13;20.42;;;5.80;;
33696;SDS011;20031;43.416;23.232;2022-10-17T13:14:42;19.70;;;6.28;;
33696;SDS011;20031;43.416;23.232;2022-10-17T13:17:24;8.73;;;4.00;;
33696;SDS011;20031;43.416;23.232;2022-10-17T13:19:52;17.67;;;6.15;;
33696;SDS011;20031;43.416;23.232;2022-10-17T13:22:22;13.30;;;4.60;;
33696;SDS011;20031;43.416;23.232;2022-10-17T13:24:50;39.03;;;10.98;;
33696;SDS011;20031;43.416;23.232;2022-10-17T13:27:21;20.35;;;8.73;;
33696;SDS011;20031;43.416;23.232;2022-10-17T13:29:49;41.83;;;9.45;;
33696;SDS011;20031;43.416;23.232;2022-10-17T13:32:14;39.72;;;8.50;;
33696;SDS011;20031;43.416;23.232;2022-10-17T13:34:40;47.72;;;9.10;;
33696;SDS011;20031;43.416;23.232;2022-10-17T13:37:06;12.68;;;4.20;;
33696;SDS011;20031;43.416;23.232;2022-10-17T13:39:42;10.95;;;4.32;;
33696;SDS011;20031;43.416;23.232;2022-10-17T13:42:20;17.80;;;5.80;;
33696;SDS011;20031;43.416;23.232;2022-10-17T13:44:48;40.38;;;9.50;;
33696;SDS011;20031;43.416;23.232;2022-10-17T13:47:21;19.25;;;5.90;;
33696;SDS011;20031;43.416;23.232;2022-10-17T13:49:48;10.65;;;4.80;;
33696;SDS011;20031;43.416;23.232;2022-10-17T13:52:16;11.35;;;4.70;;
33696;SDS011;20031;43.416;23.232;2022-10-17T13:54:45;10.10;;;5.00;;
33696;SDS011;20031;43.416;23.232;2022-10-17T13:57:19;9.77;;;4.28;;
33696;SDS011;20031;43.416;23.232;2022-10-17T13:59:46;14.10;;;6.80;;
33696;SDS011;20031;43.416;23.232;2022-10-17T14:02:24;40.53;;;10.07;;
33696;SDS011;20031;43.416;23.232;2022-10-17T14:05:00;13.48;;;5.50;;
33696;SDS011;20031;43.416;23.232;2022-10-17T14:08:12;16.67;;;9.02;;
33696;SDS011;20031;43.416;23.232;2022-10-17T14:10:21;16.17;;;5.20;;
33696;SDS011;20031;43.416;23.232;2022-10-17T14:12:50;9.88;;;4.40;;
33696;SDS011;20031;43.416;23.232;2022-10-17T14:15:16;14.18;;;4.65;;
33696;SDS011;20031;43.416;23.232;2022-10-17T14:17:43;13.55;;;5.05;;
33696;SDS011;20031;43.416;23.232;2022-10-17T14:20:19;13.77;;;4.82;;
33696;SDS011;20031;43.416;23.232;2022-10-17T14:22:46;13.60;;;4.90;;
33696;SDS011;20031;43.416;23.232;2022-10-17T14:25:29;13.27;;;5.10;;
33696;SDS011;20031;43.416;23.232;2022-10-17T14:30:39;9.55;;;4.85;;
33696;SDS011;20031;43.416;23.232;2022-10-17T14:33:07;16.27;;;4.90;;
33696;SDS011;20031;43.416;23.232;2022-10-17T14:35:39;16.08;;;4.68;;
33696;SDS011;20031;43.416;23.232;2022-10-17T14:38:12;14.38;;;4.20;;
33696;SDS011;20031;43.416;23.232;2022-10-17T14:40:46;16.30;;;5.47;;
33696;SDS011;20031;43.416;23.232;2022-10-17T14:43:15;13.43;;;4.22;;
33696;SDS011;20031;43.416;23.232;2022-10-17T14:45:45;13.45;;;4.88;;
33696;SDS011;20031;43.416;23.232;2022-10-17T14:48:12;9.07;;;4.72;;
33696;SDS011;20031;43.416;23.232;2022-10-17T14:50:40;11.88;;;4.07;;
33696;SDS011;20031;43.416;23.232;2022-10-17T14:55:36;12.57;;;3.90;;
33696;SDS011;20031;43.416;23.232;2022-10-17T14:58:16;6.88;;;3.53;;
33696;SDS011;20031;43.416;23.232;2022-10-17T15:00:43;7.35;;;3.67;;
33696;SDS011;20031;43.416;23.232;2022-10-17T15:03:08;9.43;;;3.90;;
33696;SDS011;20031;43.416;23.232;2022-10-17T15:05:34;13.15;;;3.78;;
33696;SDS011;20031;43.416;23.232;2022-10-17T15:07:59;9.15;;;3.50;;
33696;SDS011;20031;43.416;23.232;2022-10-17T15:10:32;9.32;;;3.33;;
33696;SDS011;20031;43.416;23.232;2022-10-17T15:13:00;17.60;;;3.22;;
33696;SDS011;20031;43.416;23.232;2022-10-17T15:15:27;10.07;;;3.72;;
33696;SDS011;20031;43.416;23.232;2022-10-17T15:17:53;12.40;;;3.40;;
33696;SDS011;20031;43.416;23.232;2022-10-17T15:20:19;22.83;;;5.82;;
33696;SDS011;20031;43.416;23.232;2022-10-17T15:22:45;32.95;;;5.43;;
33696;SDS011;20031;43.416;23.232;2022-10-17T15:25:10;15.80;;;5.25;;
33696;SDS011;20031;43.416;23.232;2022-10-17T15:27:36;19.70;;;4.85;;
33696;SDS011;20031;43.416;23.232;2022-10-17T15:30:01;14.32;;;3.88;;
33696;SDS011;20031;43.416;23.232;2022-10-17T15:32:27;13.50;;;4.57;;
33696;SDS011;20031;43.416;23.232;2022-10-17T15:34:53;11.63;;;4.35;;
33696;SDS011;20031;43.416;23.232;2022-10-17T15:37:23;11.02;;;4.63;;
33696;SDS011;20031;43.416;23.232;2022-10-17T15:39:50;19.85;;;5.30;;
33696;SDS011;20031;43.416;23.232;2022-10-17T15:42:19;21.65;;;6.70;;
33696;SDS011;20031;43.416;23.232;2022-10-17T15:44:45;26.95;;;8.85;;
33696;SDS011;20031;43.416;23.232;2022-10-17T15:47:24;18.92;;;5.85;;
33696;SDS011;20031;43.416;23.232;2022-10-17T15:49:52;22.80;;;5.53;;
33696;SDS011;20031;43.416;23.232;2022-10-17T15:52:19;12.40;;;4.57;;
33696;SDS011;20031;43.416;23.232;2022-10-17T15:54:45;13.68;;;4.70;;
33696;SDS011;20031;43.416;23.232;2022-10-17T15:57:18;17.42;;;5.03;;
33696;SDS011;20031;43.416;23.232;2022-10-17T15:59:50;65.05;;;7.95;;
33696;SDS011;20031;43.416;23.232;2022-10-17T16:02:16;34.72;;;7.53;;
33696;SDS011;20031;43.416;23.232;2022-10-17T16:04:43;34.00;;;9.15;;
33696;SDS011;20031;43.416;23.232;2022-10-17T16:07:09;26.65;;;8.15;;
33696;SDS011;20031;43.416;23.232;2022-10-17T16:09:34;32.22;;;9.23;;
33696;SDS011;20031;43.416;23.232;2022-10-17T16:12:04;48.33;;;13.23;;
33696;SDS011;20031;43.416;23.232;2022-10-17T16:14:34;36.17;;;11.27;;